»·PEaware :: NGF108 KIFP-KSNA

NGF108 :: KIFP-KSNA

FLIGHT INFORMATION

Flight Status: Arrived
Operator: Unknown
More flights by this operator :: More flights under this callsign
Pilot: Duane J. (9702)
Aircraft: Unknown
(B60T)
More flights by this aircraft type
Origin: KIFP Laughlin/Bullhead Intl
United States
Destination: KSNA John Wayne-Orange Co
United States
More flights between these airports :: More routes between these airports
Route: +ZELMA JOTNU TNP V370 PSP KAYOH7
File this flight plan on PilotEdge
Remarks:
Altitude:
(Current/Filed)
20,000ft
Speed:
(Current/Filed)
200kts
Departed: 10-Jun-18 10:33 AM
Arrived: 10-Jun-18 11:42 AM
Distance/Time
Traveled:
186nm/1:09
Distance/Time
To Go:
Arrived

Flight Plot

Page will automatically refresh every two minutes.

Flight plan parsing failed; only flown route is shown


Map Options




Map Legend


Flown Route
Filed Route
Departure Airport
Arrival Airport
Navaid (VOR, NDB)
Fix

Horizontal Profiles

Position Reports

Time Latitude Longitude Heading Altitude Ground
Speed
10-Jun-18 10:15 35.159659 -114.556357 266 644ft 0kts
10-Jun-18 10:16 35.159659 -114.556357 266 644ft 0kts
10-Jun-18 10:17 35.159659 -114.556357 266 644ft 0kts
10-Jun-18 10:18 35.159659 -114.556357 266 644ft 0kts
10-Jun-18 10:19 35.159659 -114.556357 266 644ft 0kts
10-Jun-18 10:20 35.159659 -114.556357 266 644ft 0kts
10-Jun-18 10:21 35.159659 -114.556357 266 644ft 0kts
10-Jun-18 10:22 35.159659 -114.556357 266 644ft 0kts
10-Jun-18 10:23 35.159659 -114.556357 266 644ft 0kts
10-Jun-18 10:24 35.159659 -114.556357 266 644ft 0kts
10-Jun-18 10:25 35.159659 -114.556357 266 644ft 0kts
10-Jun-18 10:26 35.159659 -114.556357 266 644ft 0kts
10-Jun-18 10:27 35.159659 -114.556357 266 644ft 0kts
10-Jun-18 10:28 35.159659 -114.556357 266 644ft 0kts
10-Jun-18 10:29 35.159542 -114.556822 247 644ft 9kts
10-Jun-18 10:30 35.162007 -114.558558 356 644ft 17kts
10-Jun-18 10:31 35.166209 -114.559200 263 644ft 0kts
10-Jun-18 10:32 35.166206 -114.559228 263 644ft 1kts
10-Jun-18 10:33 35.154633 -114.559636 179 758ft 149kts
10-Jun-18 10:34 35.111433 -114.552357 163 3471ft 170kts
10-Jun-18 10:35 35.066146 -114.525898 140 6421ft 189kts
10-Jun-18 10:36 35.011383 -114.508495 181 7425ft 212kts
10-Jun-18 10:37 34.984120 -114.555937 250 10178ft 178kts
10-Jun-18 10:38 34.968002 -114.610727 251 13164ft 165kts
10-Jun-18 10:39 34.954056 -114.664717 253 16005ft 169kts
10-Jun-18 10:40 34.939263 -114.723068 255 18340ft 186kts
10-Jun-18 10:41 34.923621 -114.784778 255 19864ft 211kts
10-Jun-18 10:42 34.905288 -114.856809 254 19862ft 228kts
10-Jun-18 10:43 34.885898 -114.932757 254 19864ft 239kts
10-Jun-18 10:44 34.869301 -114.997563 254 19867ft 241kts
10-Jun-18 10:45 34.849257 -115.075830 254 19872ft 243kts
10-Jun-18 10:46 34.829076 -115.154534 254 19876ft 243kts
10-Jun-18 10:47 34.808632 -115.233757 254 19882ft 247kts
10-Jun-18 10:48 34.787449 -115.313014 248 19897ft 246kts
10-Jun-18 10:49 34.727726 -115.353848 201 19911ft 263kts
10-Jun-18 10:50 34.659375 -115.384150 205 19912ft 261kts
10-Jun-18 10:51 34.590776 -115.414593 204 19919ft 262kts
10-Jun-18 10:52 34.522403 -115.444488 204 19934ft 260kts
10-Jun-18 10:53 34.454627 -115.474018 204 19944ft 258kts
10-Jun-18 10:54 34.387014 -115.503434 204 19951ft 257kts
10-Jun-18 10:55 34.320419 -115.534456 217 19955ft 252kts
10-Jun-18 10:56 34.271645 -115.593541 226 19949ft 249kts
10-Jun-18 10:57 34.219591 -115.650291 226 19934ft 253kts
10-Jun-18 10:58 34.168258 -115.707627 226 19942ft 250kts
10-Jun-18 10:59 34.117189 -115.765130 229 19942ft 249kts
10-Jun-18 11:00 34.088240 -115.838748 248 19944ft 244kts
10-Jun-18 11:01 34.060426 -115.913464 248 19945ft 244kts
10-Jun-18 11:02 34.032858 -115.988586 248 19943ft 244kts
10-Jun-18 11:03 34.005385 -116.063551 248 19935ft 245kts
10-Jun-18 11:04 33.977913 -116.138386 248 19921ft 245kts
10-Jun-18 11:05 33.950210 -116.213681 248 19913ft 245kts
10-Jun-18 11:06 33.927360 -116.275673 248 19902ft 245kts
10-Jun-18 11:07 33.904339 -116.338007 248 19889ft 237kts
10-Jun-18 11:08 33.878195 -116.408612 248 19879ft 227kts
10-Jun-18 11:09 33.872910 -116.482177 274 19493ft 232kts
10-Jun-18 11:10 33.876511 -116.560945 273 18136ft 233kts
10-Jun-18 11:11 33.880084 -116.638326 273 16739ft 231kts
10-Jun-18 11:12 33.883530 -116.712414 273 15471ft 217kts
10-Jun-18 11:13 33.886846 -116.784979 273 14268ft 216kts
10-Jun-18 11:14 33.885039 -116.854635 252 13382ft 215kts
10-Jun-18 11:15 33.860751 -116.922009 249 11988ft 219kts
10-Jun-18 11:16 33.838790 -116.989073 250 11034ft 213kts
10-Jun-18 11:17 33.816906 -117.058023 250 10999ft 218kts
10-Jun-18 11:18 33.796004 -117.124087 251 11006ft 206kts
10-Jun-18 11:19 33.776267 -117.188501 259 10996ft 203kts
10-Jun-18 11:20 33.777356 -117.255720 272 10993ft 201kts
10-Jun-18 11:21 33.778023 -117.324691 272 9997ft 206kts
10-Jun-18 11:22 33.778797 -117.392402 272 8590ft 200kts
10-Jun-18 11:23 33.779350 -117.457460 272 7994ft 196kts
10-Jun-18 11:24 33.779931 -117.524744 272 7981ft 203kts
10-Jun-18 11:25 33.780180 -117.591921 271 7315ft 201kts
10-Jun-18 11:26 33.779978 -117.659394 271 6131ft 198kts
10-Jun-18 11:27 33.783239 -117.709693 287 5751ft 210kts
10-Jun-18 11:28 33.801462 -117.769508 291 4357ft 165kts
10-Jun-18 11:29 33.818029 -117.817991 291 3999ft 160kts
10-Jun-18 11:30 33.836441 -117.871030 294 3991ft 178kts
10-Jun-18 11:31 33.878490 -117.868763 40 3998ft 186kts
10-Jun-18 11:32 33.916774 -117.825117 59 3975ft 192kts
10-Jun-18 11:33 33.907304 -117.765198 116 3981ft 187kts
10-Jun-18 11:34 33.862123 -117.754988 190 3132ft 173kts
10-Jun-18 11:35 33.821484 -117.776086 209 2978ft 136kts
10-Jun-18 11:36 33.794203 -117.793708 207 2447ft 95kts
10-Jun-18 11:37 33.770936 -117.808589 206 1996ft 95kts
10-Jun-18 11:38 33.747442 -117.823471 205 1558ft 94kts
10-Jun-18 11:39 33.724250 -117.838118 204 1027ft 93kts
10-Jun-18 11:40 33.701312 -117.852661 204 524ft 92kts
10-Jun-18 11:41 33.678784 -117.866903 204 59ft 77kts
10-Jun-18 11:42 33.675920 -117.869856 302 59ft 2kts
10-Jun-18 11:43 33.675410 -117.871549 220 59ft 0kts

Navigation Log

Ident Type
Flight plan parsing failed, navigation log unavailable